Spixworth, United Kingdom
Current Conditions -  °F | °C
As of 7:20 AM on Sunday 23 Nov 2014 (Local Time) from EGSH Reporting Station
Moderate Rain Moderate Rain  
Wind Chill: 50°   Ceiling: 400
Heat Index: 50°   Visibility: 1.3mi
Dew Point: 50°   Wind: 6mph
Humidity: 100%   Direction: 290°WNW
Pressure: 29.97"   Gusts: NA
Location:  52.69°N, 1.32°E
Report Text: EGSH 230720Z 29005KT 2100 RA BR BKN004 10/10 Q1015 BECMG 5000 BKN015
Loading
Personal Weather Stations






























Interactive Weather Map New forecast layout! Learn more

10-Day Weather Forecast

Advertisements
Track Severe Weather on mobile